sensor_id;sensor_type;location;lat;lon;timestamp;pressure;altitude;pressure_sealevel;temperature;humidity
46303;BME280;32029;51.358;5.628;2023-03-25T00:01:06;100043.66;;;11.65;84.60
46303;BME280;32029;51.358;5.628;2023-03-25T00:03:35;100025.28;;;11.59;84.38
46303;BME280;32029;51.358;5.628;2023-03-25T00:06:10;100037.13;;;11.66;84.51
46303;BME280;32029;51.358;5.628;2023-03-25T00:08:38;100028.03;;;11.52;84.27
46303;BME280;32029;51.358;5.628;2023-03-25T00:11:05;100047.66;;;11.69;84.03
46303;BME280;32029;51.358;5.628;2023-03-25T00:13:34;100058.44;;;11.64;84.18
46303;BME280;32029;51.358;5.628;2023-03-25T00:16:02;100044.06;;;11.62;84.28
46303;BME280;32029;51.358;5.628;2023-03-25T00:18:30;100052.13;;;11.64;83.83
46303;BME280;32029;51.358;5.628;2023-03-25T00:21:01;100011.56;;;11.39;83.48
46303;BME280;32029;51.358;5.628;2023-03-25T00:23:30;100014.50;;;11.38;83.59
46303;BME280;32029;51.358;5.628;2023-03-25T00:25:58;100040.69;;;11.53;83.38
46303;BME280;32029;51.358;5.628;2023-03-25T00:28:28;100026.75;;;11.42;83.92
46303;BME280;32029;51.358;5.628;2023-03-25T00:31:02;100050.84;;;11.53;83.70
46303;BME280;32029;51.358;5.628;2023-03-25T00:33:29;100015.78;;;11.42;83.72
46303;BME280;32029;51.358;5.628;2023-03-25T00:35:57;100031.19;;;11.56;83.63
46303;BME280;32029;51.358;5.628;2023-03-25T00:38:26;100032.25;;;11.55;83.50
46303;BME280;32029;51.358;5.628;2023-03-25T00:43:39;100028.88;;;11.60;83.24
46303;BME280;32029;51.358;5.628;2023-03-25T00:46:06;100027.19;;;11.59;83.12
46303;BME280;32029;51.358;5.628;2023-03-25T00:48:33;100030.31;;;11.62;83.14
46303;BME280;32029;51.358;5.628;2023-03-25T00:51:00;100036.47;;;11.64;83.20
46303;BME280;32029;51.358;5.628;2023-03-25T00:53:33;100016.81;;;11.67;83.64
46303;BME280;32029;51.358;5.628;2023-03-25T00:56:03;100025.06;;;11.67;82.92
46303;BME280;32029;51.358;5.628;2023-03-25T00:58:30;100026.13;;;11.66;82.75
46303;BME280;32029;51.358;5.628;2023-03-25T01:00:57;100028.88;;;11.66;83.21
46303;BME280;32029;51.358;5.628;2023-03-25T01:03:25;100019.13;;;11.70;82.89
46303;BME280;32029;51.358;5.628;2023-03-25T01:05:54;100025.66;;;11.69;82.40
46303;BME280;32029;51.358;5.628;2023-03-25T01:08:22;100032.66;;;11.65;82.61
46303;BME280;32029;51.358;5.628;2023-03-25T01:10:52;100025.47;;;11.64;82.69
46303;BME280;32029;51.358;5.628;2023-03-25T01:13:22;100029.47;;;11.62;82.74
46303;BME280;32029;51.358;5.628;2023-03-25T01:15:48;100013.03;;;11.55;83.00
46303;BME280;32029;51.358;5.628;2023-03-25T01:18:16;100032.88;;;11.64;81.88
46303;BME280;32029;51.358;5.628;2023-03-25T01:20:43;100021.25;;;11.62;81.97
46303;BME280;32029;51.358;5.628;2023-03-25T01:23:11;100016.19;;;11.59;81.64
46303;BME280;32029;51.358;5.628;2023-03-25T01:25:40;100023.19;;;11.55;82.08
46303;BME280;32029;51.358;5.628;2023-03-25T01:28:06;100032.69;;;11.52;82.24
46303;BME280;32029;51.358;5.628;2023-03-25T01:30:34;100029.72;;;11.53;81.58
46303;BME280;32029;51.358;5.628;2023-03-25T01:33:01;99999.94;;;11.37;81.60
46303;BME280;32029;51.358;5.628;2023-03-25T01:35:28;99989.16;;;11.29;81.19
46303;BME280;32029;51.358;5.628;2023-03-25T01:37:54;100021.88;;;11.50;81.48
46303;BME280;32029;51.358;5.628;2023-03-25T01:40:22;100030.13;;;11.50;81.78
46303;BME280;32029;51.358;5.628;2023-03-25T01:42:49;100019.38;;;11.49;81.31
46303;BME280;32029;51.358;5.628;2023-03-25T01:45:31;99982.41;;;11.25;81.15
46303;BME280;32029;51.358;5.628;2023-03-25T01:48:06;100006.91;;;11.33;81.43
46303;BME280;32029;51.358;5.628;2023-03-25T01:50:39;100020.41;;;11.35;81.63
46303;BME280;32029;51.358;5.628;2023-03-25T01:53:10;100018.72;;;11.27;81.74
46303;BME280;32029;51.358;5.628;2023-03-25T01:55:37;100020.00;;;11.24;81.91
46303;BME280;32029;51.358;5.628;2023-03-25T01:58:08;100024.03;;;11.22;82.22
46303;BME280;32029;51.358;5.628;2023-03-25T02:00:41;100021.28;;;11.22;82.56
46303;BME280;32029;51.358;5.628;2023-03-25T02:03:11;100016.63;;;11.22;82.47
46303;BME280;32029;51.358;5.628;2023-03-25T02:05:50;100021.28;;;11.22;81.84
46303;BME280;32029;51.358;5.628;2023-03-25T02:08:21;100029.31;;;11.17;82.54
46303;BME280;32029;51.358;5.628;2023-03-25T02:10:48;100034.56;;;11.18;82.54
46303;BME280;32029;51.358;5.628;2023-03-25T02:13:16;100026.75;;;11.15;82.45
46303;BME280;32029;51.358;5.628;2023-03-25T02:16:02;100018.72;;;11.07;82.61
46303;BME280;32029;51.358;5.628;2023-03-25T02:21:16;100025.50;;;11.18;82.37
46303;BME280;32029;51.358;5.628;2023-03-25T02:26:52;100031.84;;;11.18;83.04
46303;BME280;32029;51.358;5.628;2023-03-25T02:32:32;100015.13;;;11.07;83.62
46303;BME280;32029;51.358;5.628;2023-03-25T02:40:19;100018.75;;;11.20;84.79
46303;BME280;32029;51.358;5.628;2023-03-25T02:42:52;100008.81;;;11.19;84.59
46303;BME280;32029;51.358;5.628;2023-03-25T02:45:40;100021.91;;;11.17;85.23
46303;BME280;32029;51.358;5.628;2023-03-25T02:48:15;100016.19;;;11.19;85.63
46303;BME280;32029;51.358;5.628;2023-03-25T02:50:51;100019.16;;;11.17;86.61
46303;BME280;32029;51.358;5.628;2023-03-25T02:53:27;100014.09;;;11.14;88.39
46303;BME280;32029;51.358;5.628;2023-03-25T02:56:00;100017.47;;;11.16;88.62
46303;BME280;32029;51.358;5.628;2023-03-25T02:58:29;100015.38;;;11.12;89.18
46303;BME280;32029;51.358;5.628;2023-03-25T03:00:57;100012.41;;;11.13;89.30
46303;BME280;32029;51.358;5.628;2023-03-25T03:03:25;99977.13;;;10.90;89.57
46303;BME280;32029;51.358;5.628;2023-03-25T03:05:58;100001.84;;;11.10;89.79
46303;BME280;32029;51.358;5.628;2023-03-25T03:14:20;100010.69;;;10.99;89.70
46303;BME280;32029;51.358;5.628;2023-03-25T03:23:31;99964.06;;;10.92;89.14
46303;BME280;32029;51.358;5.628;2023-03-25T03:26:24;99992.53;;;11.11;88.49
46303;BME280;32029;51.358;5.628;2023-03-25T03:29:18;99993.41;;;11.05;88.21
46303;BME280;32029;51.358;5.628;2023-03-25T03:31:53;99994.88;;;11.01;88.28
46303;BME280;32029;51.358;5.628;2023-03-25T03:34:45;99999.31;;;11.02;87.96
46303;BME280;32029;51.358;5.628;2023-03-25T03:37:20;99999.97;;;11.04;87.54
46303;BME280;32029;51.358;5.628;2023-03-25T03:39:51;99973.53;;;10.90;87.23
46303;BME280;32029;51.358;5.628;2023-03-25T03:42:36;99987.91;;;11.05;87.24
46303;BME280;32029;51.358;5.628;2023-03-25T03:45:11;99984.09;;;10.99;86.77
46303;BME280;32029;51.358;5.628;2023-03-25T03:47:42;99990.66;;;11.12;86.86
46303;BME280;32029;51.358;5.628;2023-03-25T03:50:16;99997.63;;;11.14;86.44
46303;BME280;32029;51.358;5.628;2023-03-25T03:53:18;99993.41;;;11.12;85.93
46303;BME280;32029;51.358;5.628;2023-03-25T03:56:00;99957.28;;;10.82;85.78
46303;BME280;32029;51.358;5.628;2023-03-25T03:58:41;99995.50;;;11.03;87.49
46303;BME280;32029;51.358;5.628;2023-03-25T04:01:38;100001.44;;;11.00;87.56
46303;BME280;32029;51.358;5.628;2023-03-25T04:04:22;99987.88;;;10.78;86.80
46303;BME280;32029;51.358;5.628;2023-03-25T04:07:02;100005.22;;;10.92;87.86
46303;BME280;32029;51.358;5.628;2023-03-25T04:12:26;100010.28;;;10.89;87.80
46303;BME280;32029;51.358;5.628;2023-03-25T04:14:54;100001.41;;;10.87;87.40
46303;BME280;32029;51.358;5.628;2023-03-25T04:17:24;99998.84;;;10.78;86.96
46303;BME280;32029;51.358;5.628;2023-03-25T04:19:51;99997.59;;;10.81;87.11
46303;BME280;32029;51.358;5.628;2023-03-25T04:22:19;99957.25;;;10.62;86.64
46303;BME280;32029;51.358;5.628;2023-03-25T04:24:48;99993.78;;;10.69;86.03
46303;BME280;32029;51.358;5.628;2023-03-25T04:27:20;100013.00;;;10.69;85.98
46303;BME280;32029;51.358;5.628;2023-03-25T04:29:50;99996.28;;;10.64;86.43
46303;BME280;32029;51.358;5.628;2023-03-25T04:32:19;100003.28;;;10.66;87.01
46303;BME280;32029;51.358;5.628;2023-03-25T04:34:46;100009.38;;;10.68;86.77
46303;BME280;32029;51.358;5.628;2023-03-25T04:37:13;100010.25;;;10.69;86.67
46303;BME280;32029;51.358;5.628;2023-03-25T04:39:40;100004.34;;;10.65;87.17
46303;BME280;32029;51.358;5.628;2023-03-25T04:42:08;99977.03;;;10.44;87.67
46303;BME280;32029;51.358;5.628;2023-03-25T04:44:39;99988.47;;;10.54;87.46
46303;BME280;32029;51.358;5.628;2023-03-25T04:47:08;100004.75;;;10.62;88.13
46303;BME280;32029;51.358;5.628;2023-03-25T04:49:40;99992.91;;;10.55;88.55
46303;BME280;32029;51.358;5.628;2023-03-25T04:52:10;99993.13;;;10.53;88.44
46303;BME280;32029;51.358;5.628;2023-03-25T04:54:37;100002.88;;;10.69;88.47
46303;BME280;32029;51.358;5.628;2023-03-25T04:57:06;100001.38;;;10.73;88.95
46303;BME280;32029;51.358;5.628;2023-03-25T04:59:37;99999.25;;;10.75;88.90
46303;BME280;32029;51.358;5.628;2023-03-25T05:02:05;99999.06;;;10.84;88.25
46303;BME280;32029;51.358;5.628;2023-03-25T05:04:32;100007.09;;;10.92;87.94
46303;BME280;32029;51.358;5.628;2023-03-25T05:06:59;99994.84;;;10.88;86.91
46303;BME280;32029;51.358;5.628;2023-03-25T05:09:26;99983.66;;;10.83;87.01
46303;BME280;32029;51.358;5.628;2023-03-25T05:11:52;99993.38;;;10.98;86.58
46303;BME280;32029;51.358;5.628;2023-03-25T05:14:20;99998.88;;;10.98;86.42
46303;BME280;32029;51.358;5.628;2023-03-25T05:16:49;99993.19;;;10.93;86.23
46303;BME280;32029;51.358;5.628;2023-03-25T05:19:17;100012.81;;;10.97;86.15
46303;BME280;32029;51.358;5.628;2023-03-25T05:21:46;100007.97;;;10.92;85.79
46303;BME280;32029;51.358;5.628;2023-03-25T05:24:14;99988.75;;;10.86;86.25
46303;BME280;32029;51.358;5.628;2023-03-25T05:26:41;100023.56;;;10.92;86.06
46303;BME280;32029;51.358;5.628;2023-03-25T05:29:13;100014.91;;;10.88;86.11
46303;BME280;32029;51.358;5.628;2023-03-25T05:31:44;100002.66;;;10.77;86.46
46303;BME280;32029;51.358;5.628;2023-03-25T05:34:12;99989.56;;;10.66;86.59
46303;BME280;32029;51.358;5.628;2023-03-25T05:36:39;99939.03;;;10.27;86.22
46303;BME280;32029;51.358;5.628;2023-03-25T05:39:07;100016.78;;;10.74;85.99
46303;BME280;32029;51.358;5.628;2023-03-25T05:41:33;100015.72;;;10.62;86.28
46303;BME280;32029;51.358;5.628;2023-03-25T05:44:08;100018.25;;;10.70;86.32
46303;BME280;32029;51.358;5.628;2023-03-25T05:46:35;99975.97;;;10.45;85.85
46303;BME280;32029;51.358;5.628;2023-03-25T05:49:02;100015.72;;;10.62;86.10
46303;BME280;32029;51.358;5.628;2023-03-25T05:51:32;100028.41;;;10.70;85.58
46303;BME280;32029;51.358;5.628;2023-03-25T05:54:03;100030.06;;;10.71;85.38
46303;BME280;32029;51.358;5.628;2023-03-25T05:56:34;100033.88;;;10.76;85.20
46303;BME280;32029;51.358;5.628;2023-03-25T05:59:02;100039.38;;;10.76;85.71
46303;BME280;32029;51.358;5.628;2023-03-25T06:01:29;99997.31;;;10.56;85.67
46303;BME280;32029;51.358;5.628;2023-03-25T06:03:56;99997.56;;;10.68;85.00
46303;BME280;32029;51.358;5.628;2023-03-25T06:06:22;100013.22;;;10.81;84.64
46303;BME280;32029;51.358;5.628;2023-03-25T06:08:51;100043.03;;;10.97;84.17
46303;BME280;32029;51.358;5.628;2023-03-25T06:11:18;100022.09;;;10.83;83.82
46303;BME280;32029;51.358;5.628;2023-03-25T06:13:46;100034.97;;;10.89;83.65
46303;BME280;32029;51.358;5.628;2023-03-25T06:16:18;100017.84;;;10.73;83.53
46303;BME280;32029;51.358;5.628;2023-03-25T06:18:50;100023.75;;;10.84;83.65
46303;BME280;32029;51.358;5.628;2023-03-25T06:21:22;100047.44;;;10.91;83.39
46303;BME280;32029;51.358;5.628;2023-03-25T06:23:49;100026.50;;;10.84;83.39
46303;BME280;32029;51.358;5.628;2023-03-25T06:26:17;100039.00;;;10.93;83.15
46303;BME280;32029;51.358;5.628;2023-03-25T06:28:44;100053.56;;;10.93;83.26
46303;BME280;32029;51.358;5.628;2023-03-25T06:31:16;100001.38;;;10.73;82.00
46303;BME280;32029;51.358;5.628;2023-03-25T06:33:44;100044.47;;;10.86;82.76
46303;BME280;32029;51.358;5.628;2023-03-25T06:36:12;100018.25;;;10.64;82.97
46303;BME280;32029;51.358;5.628;2023-03-25T06:38:40;100032.84;;;10.77;82.71
46303;BME280;32029;51.358;5.628;2023-03-25T06:41:07;100017.00;;;10.73;82.29
46303;BME280;32029;51.358;5.628;2023-03-25T06:43:34;100024.59;;;10.71;82.16
46303;BME280;32029;51.358;5.628;2023-03-25T06:46:01;100046.59;;;10.91;82.00
46303;BME280;32029;51.358;5.628;2023-03-25T06:48:28;100053.34;;;10.95;81.74
46303;BME280;32029;51.358;5.628;2023-03-25T06:50:55;100028.63;;;10.82;81.59
46303;BME280;32029;51.358;5.628;2023-03-25T06:53:22;100045.97;;;11.02;80.97
46303;BME280;32029;51.358;5.628;2023-03-25T06:55:49;99997.16;;;10.71;81.07
46303;BME280;32029;51.358;5.628;2023-03-25T06:58:16;100058.63;;;11.03;80.89
46303;BME280;32029;51.358;5.628;2023-03-25T07:00:42;100018.28;;;10.90;80.71
46303;BME280;32029;51.358;5.628;2023-03-25T07:03:10;100045.78;;;11.10;80.70
46303;BME280;32029;51.358;5.628;2023-03-25T07:05:37;100045.38;;;11.20;80.45
46303;BME280;32029;51.358;5.628;2023-03-25T07:08:06;100031.22;;;11.16;79.93
46303;BME280;32029;51.358;5.628;2023-03-25T07:10:34;100029.31;;;11.17;79.06
46303;BME280;32029;51.358;5.628;2023-03-25T07:13:00;100024.66;;;11.17;78.99
46303;BME280;32029;51.358;5.628;2023-03-25T07:15:27;100048.53;;;11.17;78.90
46303;BME280;32029;51.358;5.628;2023-03-25T07:17:54;100015.78;;;11.02;78.93
46303;BME280;32029;51.358;5.628;2023-03-25T07:20:21;100045.56;;;11.25;78.89
46303;BME280;32029;51.358;5.628;2023-03-25T07:22:48;100071.75;;;11.34;79.50
46303;BME280;32029;51.358;5.628;2023-03-25T07:25:14;100051.28;;;11.30;78.90
46303;BME280;32029;51.358;5.628;2023-03-25T07:27:41;100038.38;;;11.31;79.62
46303;BME280;32029;51.358;5.628;2023-03-25T07:30:08;100044.94;;;11.29;79.27
46303;BME280;32029;51.358;5.628;2023-03-25T07:32:35;100051.69;;;11.53;78.58
46303;BME280;32029;51.358;5.628;2023-03-25T07:35:02;100070.28;;;11.65;78.13
46303;BME280;32029;51.358;5.628;2023-03-25T07:37:29;100043.03;;;11.63;77.82
46303;BME280;32029;51.358;5.628;2023-03-25T07:39:56;100041.50;;;11.74;77.02
46303;BME280;32029;51.358;5.628;2023-03-25T07:42:23;100040.91;;;11.72;76.86
46303;BME280;32029;51.358;5.628;2023-03-25T07:44:49;100015.13;;;11.66;77.09
46303;BME280;32029;51.358;5.628;2023-03-25T07:47:17;100047.03;;;11.87;76.79
46303;BME280;32029;51.358;5.628;2023-03-25T07:49:44;100045.13;;;11.88;76.90
46303;BME280;32029;51.358;5.628;2023-03-25T07:52:12;100062.41;;;12.08;77.02
46303;BME280;32029;51.358;5.628;2023-03-25T07:54:38;100060.50;;;12.09;77.36
46303;BME280;32029;51.358;5.628;2023-03-25T07:57:05;100031.38;;;11.88;77.43
46303;BME280;32029;51.358;5.628;2023-03-25T07:59:32;100041.50;;;12.00;77.06
46303;BME280;32029;51.358;5.628;2023-03-25T08:01:59;100043.22;;;12.01;77.08
46303;BME280;32029;51.358;5.628;2023-03-25T08:04:25;100053.31;;;12.14;77.01
46303;BME280;32029;51.358;5.628;2023-03-25T08:06:52;100054.16;;;12.08;76.65
46303;BME280;32029;51.358;5.628;2023-03-25T08:09:19;100059.47;;;12.03;77.15
46303;BME280;32029;51.358;5.628;2023-03-25T08:11:46;100085.88;;;12.17;78.92
46303;BME280;32029;51.358;5.628;2023-03-25T08:14:13;100059.66;;;12.08;79.22
46303;BME280;32029;51.358;5.628;2023-03-25T08:16:40;100066.47;;;11.99;79.17
46303;BME280;32029;51.358;5.628;2023-03-25T08:19:07;100093.31;;;12.04;79.33
46303;BME280;32029;51.358;5.628;2023-03-25T08:21:34;100078.31;;;11.93;79.82
46303;BME280;32029;51.358;5.628;2023-03-25T08:24:01;100062.66;;;11.80;79.48
46303;BME280;32029;51.358;5.628;2023-03-25T08:26:31;100095.22;;;12.03;79.98
46303;BME280;32029;51.358;5.628;2023-03-25T08:29:00;100104.09;;;12.05;78.90
46303;BME280;32029;51.358;5.628;2023-03-25T08:31:29;100096.06;;;11.97;79.23
46303;BME280;32029;51.358;5.628;2023-03-25T08:33:58;100071.56;;;11.89;78.72
46303;BME280;32029;51.358;5.628;2023-03-25T08:36:25;100096.25;;;12.09;79.03
46303;BME280;32029;51.358;5.628;2023-03-25T08:38:51;100093.09;;;12.05;78.26
46303;BME280;32029;51.358;5.628;2023-03-25T08:41:19;100109.16;;;12.21;78.20
46303;BME280;32029;51.358;5.628;2023-03-25T08:43:45;100112.09;;;12.20;77.56
46303;BME280;32029;51.358;5.628;2023-03-25T08:46:12;100073.00;;;12.05;77.65
46303;BME280;32029;51.358;5.628;2023-03-25T08:48:39;100068.13;;;12.13;77.80
46303;BME280;32029;51.358;5.628;2023-03-25T08:51:06;100089.84;;;12.35;78.39
46303;BME280;32029;51.358;5.628;2023-03-25T08:53:33;100068.69;;;12.29;77.99
46303;BME280;32029;51.358;5.628;2023-03-25T08:55:59;100103.59;;;12.41;79.15
46303;BME280;32029;51.358;5.628;2023-03-25T08:58:26;100101.09;;;12.26;82.87
46303;BME280;32029;51.358;5.628;2023-03-25T09:00:54;100121.41;;;12.25;83.80
46303;BME280;32029;51.358;5.628;2023-03-25T09:03:22;100115.50;;;12.15;84.00
46303;BME280;32029;51.358;5.628;2023-03-25T09:05:49;100083.81;;;11.93;84.78
46303;BME280;32029;51.358;5.628;2023-03-25T09:08:16;100097.13;;;12.02;83.35
46303;BME280;32029;51.358;5.628;2023-03-25T09:10:42;100088.03;;;11.89;84.18
46303;BME280;32029;51.358;5.628;2023-03-25T09:13:09;100097.97;;;11.96;85.03
46303;BME280;32029;51.358;5.628;2023-03-25T09:15:36;100085.91;;;11.97;83.45
46303;BME280;32029;51.358;5.628;2023-03-25T09:18:03;100088.66;;;12.11;81.98
46303;BME280;32029;51.358;5.628;2023-03-25T09:20:32;100091.81;;;12.14;80.86
46303;BME280;32029;51.358;5.628;2023-03-25T09:22:59;100066.41;;;12.12;80.21
46303;BME280;32029;51.358;5.628;2023-03-25T09:25:25;100081.47;;;12.10;80.52
46303;BME280;32029;51.358;5.628;2023-03-25T09:27:52;100111.19;;;12.46;79.29
46303;BME280;32029;51.358;5.628;2023-03-25T09:30:19;100117.53;;;12.53;79.57
46303;BME280;32029;51.358;5.628;2023-03-25T09:32:45;100104.59;;;12.60;79.92
46303;BME280;32029;51.358;5.628;2023-03-25T09:35:12;100081.59;;;12.41;79.98
46303;BME280;32029;51.358;5.628;2023-03-25T09:37:39;100114.28;;;12.63;79.18
46303;BME280;32029;51.358;5.628;2023-03-25T09:40:06;100110.69;;;12.62;78.82
46303;BME280;32029;51.358;5.628;2023-03-25T09:45:43;100106.09;;;12.49;80.55
46303;BME280;32029;51.358;5.628;2023-03-25T09:48:22;100147.13;;;12.64;80.44
46303;BME280;32029;51.358;5.628;2023-03-25T09:50:50;100119.19;;;12.54;79.35
46303;BME280;32029;51.358;5.628;2023-03-25T09:53:37;100135.47;;;12.62;80.43
46303;BME280;32029;51.358;5.628;2023-03-25T09:56:10;100119.44;;;12.53;81.65
46303;BME280;32029;51.358;5.628;2023-03-25T09:58:42;100146.63;;;12.81;82.47
46303;BME280;32029;51.358;5.628;2023-03-25T10:01:25;100141.25;;;12.99;80.99
46303;BME280;32029;51.358;5.628;2023-03-25T10:10:15;100123.13;;;13.23;77.90
46303;BME280;32029;51.358;5.628;2023-03-25T10:13:08;100165.28;;;13.30;77.33
46303;BME280;32029;51.358;5.628;2023-03-25T10:15:49;100156.63;;;13.13;78.45
46303;BME280;32029;51.358;5.628;2023-03-25T10:18:55;100151.53;;;13.17;79.45
46303;BME280;32029;51.358;5.628;2023-03-25T10:21:31;100164.03;;;13.13;80.14
46303;BME280;32029;51.358;5.628;2023-03-25T10:27:00;100171.44;;;13.19;78.94
46303;BME280;32029;51.358;5.628;2023-03-25T10:29:53;100173.34;;;13.18;79.72
46303;BME280;32029;51.358;5.628;2023-03-25T10:35:10;100159.97;;;13.29;79.06
46303;BME280;32029;51.358;5.628;2023-03-25T10:37:40;100160.84;;;13.22;77.50
46303;BME280;32029;51.358;5.628;2023-03-25T10:40:14;100145.75;;;13.32;78.37
46303;BME280;32029;51.358;5.628;2023-03-25T10:43:44;100152.28;;;13.37;77.56
46303;BME280;32029;51.358;5.628;2023-03-25T10:45:59;100137.47;;;13.32;77.32
46303;BME280;32029;51.358;5.628;2023-03-25T10:48:30;100143.25;;;13.55;76.97
46303;BME280;32029;51.358;5.628;2023-03-25T10:51:02;100142.09;;;13.69;75.27
46303;BME280;32029;51.358;5.628;2023-03-25T10:53:32;100158.00;;;13.67;74.58
46303;BME280;32029;51.358;5.628;2023-03-25T10:56:06;100167.91;;;13.75;73.53
46303;BME280;32029;51.358;5.628;2023-03-25T10:58:36;100150.69;;;13.80;72.89
46303;BME280;32029;51.358;5.628;2023-03-25T11:01:41;100154.09;;;13.82;74.53
46303;BME280;32029;51.358;5.628;2023-03-25T11:04:16;100126.59;;;13.68;72.39
46303;BME280;32029;51.358;5.628;2023-03-25T11:06:50;100139.72;;;13.98;72.38
46303;BME280;32029;51.358;5.628;2023-03-25T11:09:29;100153.78;;;14.15;72.53
46303;BME280;32029;51.358;5.628;2023-03-25T11:12:00;100164.22;;;14.31;70.94
46303;BME280;32029;51.358;5.628;2023-03-25T11:14:28;100114.63;;;14.25;70.49
46303;BME280;32029;51.358;5.628;2023-03-25T11:17:02;100160.13;;;14.59;69.45
46303;BME280;32029;51.358;5.628;2023-03-25T11:19:45;100146.22;;;14.47;67.42
46303;BME280;32029;51.358;5.628;2023-03-25T11:22:21;100179.34;;;14.47;69.18
46303;BME280;32029;51.358;5.628;2023-03-25T11:24:51;100134.31;;;14.10;68.85
46303;BME280;32029;51.358;5.628;2023-03-25T11:27:26;100193.13;;;14.29;69.56
46303;BME280;32029;51.358;5.628;2023-03-25T11:30:00;100204.47;;;14.20;71.47
46303;BME280;32029;51.358;5.628;2023-03-25T11:32:38;100190.28;;;14.17;71.52
46303;BME280;32029;51.358;5.628;2023-03-25T11:35:13;100194.31;;;14.14;72.48
46303;BME280;32029;51.358;5.628;2023-03-25T11:37:47;100199.22;;;14.12;73.20
46303;BME280;32029;51.358;5.628;2023-03-25T11:40:19;100184.41;;;14.07;73.36
46303;BME280;32029;51.358;5.628;2023-03-25T11:42:52;100189.75;;;14.02;74.92
46303;BME280;32029;51.358;5.628;2023-03-25T11:45:21;100181.44;;;14.08;73.53
46303;BME280;32029;51.358;5.628;2023-03-25T11:47:48;100153.06;;;14.01;73.21
46303;BME280;32029;51.358;5.628;2023-03-25T11:50:22;100188.84;;;14.33;70.88
46303;BME280;32029;51.358;5.628;2023-03-25T11:52:53;100145.69;;;14.20;69.40
46303;BME280;32029;51.358;5.628;2023-03-25T11:55:25;100179.72;;;14.32;68.82
46303;BME280;32029;51.358;5.628;2023-03-25T11:57:54;100174.50;;;14.24;68.76
46303;BME280;32029;51.358;5.628;2023-03-25T12:00:26;100207.53;;;14.31;69.88
46303;BME280;32029;51.358;5.628;2023-03-25T12:03:04;100209.28;;;14.25;71.02
46303;BME280;32029;51.358;5.628;2023-03-25T12:05:32;100204.56;;;14.07;73.13
46303;BME280;32029;51.358;5.628;2023-03-25T12:08:03;100149.38;;;13.57;74.95
46303;BME280;32029;51.358;5.628;2023-03-25T12:13:06;100177.28;;;13.42;78.92
46303;BME280;32029;51.358;5.628;2023-03-25T12:15:53;100177.56;;;13.28;80.14
46303;BME280;32029;51.358;5.628;2023-03-25T12:18:34;100188.75;;;13.33;81.33
46303;BME280;32029;51.358;5.628;2023-03-25T12:21:15;100183.88;;;13.35;81.12
46303;BME280;32029;51.358;5.628;2023-03-25T12:24:15;100190.91;;;13.31;80.59
46303;BME280;32029;51.358;5.628;2023-03-25T12:33:00;100199.53;;;13.41;77.88
46303;BME280;32029;51.358;5.628;2023-03-25T12:52:04;100225.44;;;12.68;87.72
46303;BME280;32029;51.358;5.628;2023-03-25T12:55:22;100218.69;;;11.71;90.77
46303;BME280;32029;51.358;5.628;2023-03-25T12:58:09;100205.41;;;11.00;96.59
46303;BME280;32029;51.358;5.628;2023-03-25T13:06:27;100201.59;;;10.53;100.00
46303;BME280;32029;51.358;5.628;2023-03-25T13:11:51;100166.13;;;10.52;100.00
46303;BME280;32029;51.358;5.628;2023-03-25T13:14:24;100177.00;;;10.73;100.00
46303;BME280;32029;51.358;5.628;2023-03-25T13:16:56;100188.47;;;10.90;100.00
46303;BME280;32029;51.358;5.628;2023-03-25T13:19:28;100184.22;;;10.88;100.00
46303;BME280;32029;51.358;5.628;2023-03-25T13:22:02;100170.03;;;10.71;100.00
46303;BME280;32029;51.358;5.628;2023-03-25T13:24:42;100244.03;;;10.99;100.00
46303;BME280;32029;51.358;5.628;2023-03-25T13:27:12;100223.94;;;10.92;100.00
46303;BME280;32029;51.358;5.628;2023-03-25T13:29:46;100231.47;;;10.76;100.00
46303;BME280;32029;51.358;5.628;2023-03-25T13:32:26;100232.22;;;10.57;100.00
46303;BME280;32029;51.358;5.628;2023-03-25T13:34:58;100195.84;;;10.42;100.00
46303;BME280;32029;51.358;5.628;2023-03-25T13:37:39;100164.31;;;10.03;100.00
46303;BME280;32029;51.358;5.628;2023-03-25T13:40:21;100193.50;;;10.17;100.00
46303;BME280;32029;51.358;5.628;2023-03-25T13:43:19;100184.13;;;10.05;100.00
46303;BME280;32029;51.358;5.628;2023-03-25T13:46:04;100200.72;;;10.18;100.00
46303;BME280;32029;51.358;5.628;2023-03-25T13:48:40;100197.06;;;10.11;100.00
46303;BME280;32029;51.358;5.628;2023-03-25T13:51:08;100207.88;;;10.19;100.00
46303;BME280;32029;51.358;5.628;2023-03-25T13:59:18;100211.13;;;10.58;100.00
46303;BME280;32029;51.358;5.628;2023-03-25T14:04:54;100220.16;;;10.93;100.00
46303;BME280;32029;51.358;5.628;2023-03-25T14:12:51;100228.28;;;11.21;100.00
46303;BME280;32029;51.358;5.628;2023-03-25T14:15:25;100223.06;;;11.33;100.00
46303;BME280;32029;51.358;5.628;2023-03-25T14:17:53;100214.34;;;11.22;100.00
46303;BME280;32029;51.358;5.628;2023-03-25T14:20:33;100223.69;;;11.35;100.00
46303;BME280;32029;51.358;5.628;2023-03-25T14:23:04;100205.53;;;11.40;100.00
46303;BME280;32029;51.358;5.628;2023-03-25T14:28:35;100185.25;;;11.48;100.00
46303;BME280;32029;51.358;5.628;2023-03-25T14:39:09;100203.72;;;12.14;100.00
46303;BME280;32029;51.358;5.628;2023-03-25T14:44:22;100185.31;;;11.88;100.00
46303;BME280;32029;51.358;5.628;2023-03-25T14:47:26;100189.94;;;11.81;100.00
46303;BME280;32029;51.358;5.628;2023-03-25T14:52:36;100225.31;;;11.90;100.00
46303;BME280;32029;51.358;5.628;2023-03-25T14:55:19;100213.22;;;11.85;100.00
46303;BME280;32029;51.358;5.628;2023-03-25T14:57:47;100193.56;;;11.88;100.00
46303;BME280;32029;51.358;5.628;2023-03-25T15:00:26;100174.75;;;11.98;100.00
46303;BME280;32029;51.358;5.628;2023-03-25T15:03:15;100196.72;;;12.31;100.00
46303;BME280;32029;51.358;5.628;2023-03-25T15:05:52;100209.38;;;12.52;100.00